sensor_id;sensor_type;location;lat;lon;timestamp;temperature;humidity
14527;DHT22;7350;51.208;4.238;2023-02-01T00:02:12;16.50;99.90
14527;DHT22;7350;51.208;4.238;2023-02-01T00:04:39;16.40;99.90
14527;DHT22;7350;51.208;4.238;2023-02-01T00:07:06;16.40;99.90
14527;DHT22;7350;51.208;4.238;2023-02-01T00:09:33;16.40;99.90
14527;DHT22;7350;51.208;4.238;2023-02-01T00:12:00;16.40;99.90
14527;DHT22;7350;51.208;4.238;2023-02-01T00:14:29;16.40;99.90
14527;DHT22;7350;51.208;4.238;2023-02-01T00:16:57;16.50;99.90
14527;DHT22;7350;51.208;4.238;2023-02-01T00:19:24;16.40;99.90
14527;DHT22;7350;51.208;4.238;2023-02-01T00:21:51;16.40;99.90
14527;DHT22;7350;51.208;4.238;2023-02-01T00:24:18;16.30;99.90
14527;DHT22;7350;51.208;4.238;2023-02-01T00:26:45;16.30;99.90
14527;DHT22;7350;51.208;4.238;2023-02-01T00:29:15;16.30;99.90
14527;DHT22;7350;51.208;4.238;2023-02-01T00:31:44;16.30;99.90
14527;DHT22;7350;51.208;4.238;2023-02-01T00:34:12;16.30;99.90
14527;DHT22;7350;51.208;4.238;2023-02-01T00:36:39;16.20;99.90
14527;DHT22;7350;51.208;4.238;2023-02-01T00:39:07;16.20;99.90
14527;DHT22;7350;51.208;4.238;2023-02-01T00:41:34;16.20;99.90
14527;DHT22;7350;51.208;4.238;2023-02-01T00:44:01;16.20;99.90
14527;DHT22;7350;51.208;4.238;2023-02-01T00:46:28;16.20;99.90
14527;DHT22;7350;51.208;4.238;2023-02-01T00:48:56;16.20;99.90
14527;DHT22;7350;51.208;4.238;2023-02-01T00:51:25;16.10;99.90
14527;DHT22;7350;51.208;4.238;2023-02-01T00:53:53;16.10;99.90
14527;DHT22;7350;51.208;4.238;2023-02-01T00:56:20;16.10;99.90
14527;DHT22;7350;51.208;4.238;2023-02-01T00:58:47;16.10;99.90
14527;DHT22;7350;51.208;4.238;2023-02-01T01:01:16;16.00;99.90
14527;DHT22;7350;51.208;4.238;2023-02-01T01:03:44;16.00;99.90
14527;DHT22;7350;51.208;4.238;2023-02-01T01:06:14;16.00;99.90
14527;DHT22;7350;51.208;4.238;2023-02-01T01:08:42;16.00;99.90
14527;DHT22;7350;51.208;4.238;2023-02-01T01:11:13;16.00;99.90
14527;DHT22;7350;51.208;4.238;2023-02-01T01:13:41;16.00;99.90
14527;DHT22;7350;51.208;4.238;2023-02-01T01:16:10;16.00;99.90
14527;DHT22;7350;51.208;4.238;2023-02-01T01:18:37;16.10;99.90
14527;DHT22;7350;51.208;4.238;2023-02-01T01:21:05;16.00;99.90
14527;DHT22;7350;51.208;4.238;2023-02-01T01:23:34;16.00;99.90
14527;DHT22;7350;51.208;4.238;2023-02-01T01:26:04;16.00;99.90
14527;DHT22;7350;51.208;4.238;2023-02-01T01:28:31;16.10;99.90
14527;DHT22;7350;51.208;4.238;2023-02-01T01:30:58;16.00;99.90
14527;DHT22;7350;51.208;4.238;2023-02-01T01:33:25;16.00;99.90
14527;DHT22;7350;51.208;4.238;2023-02-01T01:35:52;16.00;99.90
14527;DHT22;7350;51.208;4.238;2023-02-01T01:38:19;16.00;99.90
14527;DHT22;7350;51.208;4.238;2023-02-01T01:40:48;16.00;99.90
14527;DHT22;7350;51.208;4.238;2023-02-01T01:43:17;16.00;99.90
14527;DHT22;7350;51.208;4.238;2023-02-01T01:45:45;16.00;99.90
14527;DHT22;7350;51.208;4.238;2023-02-01T01:48:16;16.00;99.90
14527;DHT22;7350;51.208;4.238;2023-02-01T01:50:47;16.00;99.90
14527;DHT22;7350;51.208;4.238;2023-02-01T01:53:19;16.00;99.90
14527;DHT22;7350;51.208;4.238;2023-02-01T01:55:50;16.00;99.90
14527;DHT22;7350;51.208;4.238;2023-02-01T01:58:19;15.90;99.90
14527;DHT22;7350;51.208;4.238;2023-02-01T02:00:48;15.90;99.90
14527;DHT22;7350;51.208;4.238;2023-02-01T02:03:18;16.00;99.90
14527;DHT22;7350;51.208;4.238;2023-02-01T02:05:46;15.90;99.90
14527;DHT22;7350;51.208;4.238;2023-02-01T02:08:15;15.90;99.90
14527;DHT22;7350;51.208;4.238;2023-02-01T02:10:43;15.90;99.90
14527;DHT22;7350;51.208;4.238;2023-02-01T02:13:33;15.90;99.90
14527;DHT22;7350;51.208;4.238;2023-02-01T02:16:13;15.90;99.90
14527;DHT22;7350;51.208;4.238;2023-02-01T02:18:49;15.90;99.90
14527;DHT22;7350;51.208;4.238;2023-02-01T02:21:40;15.90;99.90
14527;DHT22;7350;51.208;4.238;2023-02-01T02:24:29;15.90;99.90
14527;DHT22;7350;51.208;4.238;2023-02-01T02:27:22;15.90;99.90
14527;DHT22;7350;51.208;4.238;2023-02-01T02:30:09;15.90;99.90
14527;DHT22;7350;51.208;4.238;2023-02-01T02:33:03;15.90;99.90
14527;DHT22;7350;51.208;4.238;2023-02-01T02:35:39;15.80;99.90
14527;DHT22;7350;51.208;4.238;2023-02-01T02:38:17;15.80;99.90
14527;DHT22;7350;51.208;4.238;2023-02-01T02:40:49;15.80;99.90
14527;DHT22;7350;51.208;4.238;2023-02-01T02:43:21;15.80;99.90
14527;DHT22;7350;51.208;4.238;2023-02-01T02:46:11;15.70;99.90
14527;DHT22;7350;51.208;4.238;2023-02-01T02:49:00;15.80;99.90
14527;DHT22;7350;51.208;4.238;2023-02-01T02:51:33;15.80;99.90
14527;DHT22;7350;51.208;4.238;2023-02-01T02:54:22;15.80;99.90
14527;DHT22;7350;51.208;4.238;2023-02-01T02:57:11;15.80;99.90
14527;DHT22;7350;51.208;4.238;2023-02-01T02:59:58;15.80;99.90
14527;DHT22;7350;51.208;4.238;2023-02-01T03:02:43;15.80;99.90
14527;DHT22;7350;51.208;4.238;2023-02-01T03:05:32;15.80;99.90
14527;DHT22;7350;51.208;4.238;2023-02-01T03:08:10;15.80;99.90
14527;DHT22;7350;51.208;4.238;2023-02-01T03:10:56;15.80;99.90
14527;DHT22;7350;51.208;4.238;2023-02-01T03:13:31;15.80;99.90
14527;DHT22;7350;51.208;4.238;2023-02-01T03:16:02;15.80;99.90
14527;DHT22;7350;51.208;4.238;2023-02-01T03:18:35;15.80;99.90
14527;DHT22;7350;51.208;4.238;2023-02-01T03:21:08;15.80;99.90
14527;DHT22;7350;51.208;4.238;2023-02-01T03:23:38;15.80;99.90
14527;DHT22;7350;51.208;4.238;2023-02-01T03:26:08;15.70;99.90
14527;DHT22;7350;51.208;4.238;2023-02-01T03:28:39;15.70;99.90
14527;DHT22;7350;51.208;4.238;2023-02-01T03:31:08;15.70;99.90
14527;DHT22;7350;51.208;4.238;2023-02-01T03:33:36;15.70;99.90
14527;DHT22;7350;51.208;4.238;2023-02-01T03:36:12;15.60;99.90
14527;DHT22;7350;51.208;4.238;2023-02-01T03:38:50;15.60;99.90
14527;DHT22;7350;51.208;4.238;2023-02-01T03:41:23;15.70;99.90
14527;DHT22;7350;51.208;4.238;2023-02-01T03:43:55;15.70;99.90
14527;DHT22;7350;51.208;4.238;2023-02-01T03:46:30;15.60;99.90
14527;DHT22;7350;51.208;4.238;2023-02-01T03:49:02;15.70;99.90
14527;DHT22;7350;51.208;4.238;2023-02-01T03:51:31;15.80;99.90
14527;DHT22;7350;51.208;4.238;2023-02-01T03:54:01;15.80;99.90
14527;DHT22;7350;51.208;4.238;2023-02-01T03:56:31;15.80;99.90
14527;DHT22;7350;51.208;4.238;2023-02-01T03:59:02;15.80;99.90
14527;DHT22;7350;51.208;4.238;2023-02-01T04:01:30;15.80;99.90
14527;DHT22;7350;51.208;4.238;2023-02-01T04:03:58;15.70;99.90
14527;DHT22;7350;51.208;4.238;2023-02-01T04:06:25;15.70;99.90
14527;DHT22;7350;51.208;4.238;2023-02-01T04:08:52;15.70;99.90
14527;DHT22;7350;51.208;4.238;2023-02-01T04:11:20;15.70;99.90
14527;DHT22;7350;51.208;4.238;2023-02-01T04:13:47;15.80;99.90
14527;DHT22;7350;51.208;4.238;2023-02-01T04:16:14;15.80;99.90
14527;DHT22;7350;51.208;4.238;2023-02-01T04:18:41;15.80;99.90
14527;DHT22;7350;51.208;4.238;2023-02-01T04:21:08;15.90;99.90
14527;DHT22;7350;51.208;4.238;2023-02-01T04:23:35;15.80;99.90
14527;DHT22;7350;51.208;4.238;2023-02-01T04:26:04;15.90;99.90
14527;DHT22;7350;51.208;4.238;2023-02-01T04:28:32;15.90;99.90
14527;DHT22;7350;51.208;4.238;2023-02-01T04:30:59;15.90;99.90
14527;DHT22;7350;51.208;4.238;2023-02-01T04:33:26;16.00;99.90
14527;DHT22;7350;51.208;4.238;2023-02-01T04:35:53;16.00;99.90
14527;DHT22;7350;51.208;4.238;2023-02-01T04:38:20;16.10;99.90
14527;DHT22;7350;51.208;4.238;2023-02-01T04:40:48;16.10;99.90
14527;DHT22;7350;51.208;4.238;2023-02-01T04:43:15;16.10;99.90
14527;DHT22;7350;51.208;4.238;2023-02-01T04:45:46;16.10;99.90
14527;DHT22;7350;51.208;4.238;2023-02-01T04:48:14;16.20;99.90
14527;DHT22;7350;51.208;4.238;2023-02-01T04:50:41;16.20;99.90
14527;DHT22;7350;51.208;4.238;2023-02-01T04:53:08;16.30;99.90
14527;DHT22;7350;51.208;4.238;2023-02-01T04:55:35;16.50;99.90
14527;DHT22;7350;51.208;4.238;2023-02-01T04:58:02;16.60;99.90
14527;DHT22;7350;51.208;4.238;2023-02-01T05:00:29;16.80;99.90
14527;DHT22;7350;51.208;4.238;2023-02-01T05:02:57;16.90;99.90
14527;DHT22;7350;51.208;4.238;2023-02-01T05:05:24;17.10;99.90
14527;DHT22;7350;51.208;4.238;2023-02-01T05:07:51;17.20;99.90
14527;DHT22;7350;51.208;4.238;2023-02-01T05:10:18;17.30;99.90
14527;DHT22;7350;51.208;4.238;2023-02-01T05:12:46;17.40;99.90
14527;DHT22;7350;51.208;4.238;2023-02-01T05:15:30;17.50;99.90
14527;DHT22;7350;51.208;4.238;2023-02-01T05:17:59;17.60;99.90
14527;DHT22;7350;51.208;4.238;2023-02-01T05:20:26;17.60;99.90
14527;DHT22;7350;51.208;4.238;2023-02-01T05:22:53;17.70;99.90
14527;DHT22;7350;51.208;4.238;2023-02-01T05:25:20;17.80;99.90
14527;DHT22;7350;51.208;4.238;2023-02-01T05:27:47;17.80;99.90
14527;DHT22;7350;51.208;4.238;2023-02-01T05:30:14;17.90;99.90
14527;DHT22;7350;51.208;4.238;2023-02-01T05:32:41;18.00;99.90
14527;DHT22;7350;51.208;4.238;2023-02-01T05:35:10;18.00;99.90
14527;DHT22;7350;51.208;4.238;2023-02-01T05:37:37;18.10;99.90
14527;DHT22;7350;51.208;4.238;2023-02-01T05:40:04;18.10;99.90
14527;DHT22;7350;51.208;4.238;2023-02-01T05:42:32;18.20;99.90
14527;DHT22;7350;51.208;4.238;2023-02-01T05:44:58;18.30;99.90
14527;DHT22;7350;51.208;4.238;2023-02-01T05:47:25;18.30;99.90
14527;DHT22;7350;51.208;4.238;2023-02-01T05:49:52;18.40;99.90
14527;DHT22;7350;51.208;4.238;2023-02-01T05:52:21;18.40;99.90
14527;DHT22;7350;51.208;4.238;2023-02-01T05:54:48;18.50;99.90
14527;DHT22;7350;51.208;4.238;2023-02-01T05:57:15;18.50;99.90
14527;DHT22;7350;51.208;4.238;2023-02-01T05:59:42;18.50;99.90
14527;DHT22;7350;51.208;4.238;2023-02-01T06:02:10;18.50;99.90
14527;DHT22;7350;51.208;4.238;2023-02-01T06:04:37;18.50;99.90
14527;DHT22;7350;51.208;4.238;2023-02-01T06:07:05;18.50;99.90
14527;DHT22;7350;51.208;4.238;2023-02-01T06:09:40;18.40;99.90
14527;DHT22;7350;51.208;4.238;2023-02-01T06:12:07;18.30;99.90
14527;DHT22;7350;51.208;4.238;2023-02-01T06:14:34;18.40;99.90
14527;DHT22;7350;51.208;4.238;2023-02-01T06:17:02;18.30;99.90
14527;DHT22;7350;51.208;4.238;2023-02-01T06:19:31;18.30;99.90
14527;DHT22;7350;51.208;4.238;2023-02-01T06:21:58;18.20;99.90
14527;DHT22;7350;51.208;4.238;2023-02-01T06:24:25;18.20;99.90
14527;DHT22;7350;51.208;4.238;2023-02-01T06:26:53;18.20;99.90
14527;DHT22;7350;51.208;4.238;2023-02-01T06:29:20;18.10;99.90
14527;DHT22;7350;51.208;4.238;2023-02-01T06:31:47;18.10;99.90
14527;DHT22;7350;51.208;4.238;2023-02-01T06:34:14;18.10;99.90
14527;DHT22;7350;51.208;4.238;2023-02-01T06:36:41;18.10;99.90
14527;DHT22;7350;51.208;4.238;2023-02-01T06:39:08;18.00;99.90
14527;DHT22;7350;51.208;4.238;2023-02-01T06:41:35;18.00;99.90
14527;DHT22;7350;51.208;4.238;2023-02-01T06:44:03;18.00;99.90
14527;DHT22;7350;51.208;4.238;2023-02-01T06:46:30;17.90;99.90
14527;DHT22;7350;51.208;4.238;2023-02-01T06:48:57;17.80;99.90
14527;DHT22;7350;51.208;4.238;2023-02-01T06:51:26;17.80;99.90
14527;DHT22;7350;51.208;4.238;2023-02-01T06:53:54;17.70;99.90
14527;DHT22;7350;51.208;4.238;2023-02-01T06:56:21;17.70;99.90
14527;DHT22;7350;51.208;4.238;2023-02-01T06:58:48;17.70;99.90
14527;DHT22;7350;51.208;4.238;2023-02-01T07:01:16;17.60;99.90
14527;DHT22;7350;51.208;4.238;2023-02-01T07:03:47;17.60;99.90
14527;DHT22;7350;51.208;4.238;2023-02-01T07:06:14;17.60;99.90
14527;DHT22;7350;51.208;4.238;2023-02-01T07:08:41;17.70;99.90
14527;DHT22;7350;51.208;4.238;2023-02-01T07:11:10;17.70;99.90
14527;DHT22;7350;51.208;4.238;2023-02-01T07:13:38;17.70;99.90
14527;DHT22;7350;51.208;4.238;2023-02-01T07:16:06;17.70;99.90
14527;DHT22;7350;51.208;4.238;2023-02-01T07:18:35;17.70;99.90
14527;DHT22;7350;51.208;4.238;2023-02-01T07:21:02;17.70;99.90
14527;DHT22;7350;51.208;4.238;2023-02-01T07:23:29;17.70;99.90
14527;DHT22;7350;51.208;4.238;2023-02-01T07:25:58;17.70;99.90
14527;DHT22;7350;51.208;4.238;2023-02-01T07:28:25;17.60;99.90
14527;DHT22;7350;51.208;4.238;2023-02-01T07:30:52;17.60;99.90
14527;DHT22;7350;51.208;4.238;2023-02-01T07:33:21;17.60;99.90
14527;DHT22;7350;51.208;4.238;2023-02-01T07:35:50;17.60;99.90
14527;DHT22;7350;51.208;4.238;2023-02-01T07:38:17;17.60;99.90
14527;DHT22;7350;51.208;4.238;2023-02-01T07:40:45;17.50;99.90
14527;DHT22;7350;51.208;4.238;2023-02-01T07:43:12;17.50;99.90
14527;DHT22;7350;51.208;4.238;2023-02-01T07:45:39;17.50;99.90
14527;DHT22;7350;51.208;4.238;2023-02-01T07:48:06;17.40;99.90
14527;DHT22;7350;51.208;4.238;2023-02-01T07:50:33;17.40;99.90
14527;DHT22;7350;51.208;4.238;2023-02-01T07:53:02;17.40;99.90
14527;DHT22;7350;51.208;4.238;2023-02-01T07:55:28;17.30;99.90
14527;DHT22;7350;51.208;4.238;2023-02-01T07:57:57;17.30;99.90
14527;DHT22;7350;51.208;4.238;2023-02-01T08:00:25;17.30;99.90
14527;DHT22;7350;51.208;4.238;2023-02-01T08:03:09;17.30;99.90
14527;DHT22;7350;51.208;4.238;2023-02-01T08:05:36;17.30;99.90
14527;DHT22;7350;51.208;4.238;2023-02-01T08:08:06;17.30;99.90
14527;DHT22;7350;51.208;4.238;2023-02-01T08:10:33;17.30;99.90
14527;DHT22;7350;51.208;4.238;2023-02-01T08:13:01;17.20;99.90
14527;DHT22;7350;51.208;4.238;2023-02-01T08:15:29;17.20;99.90
14527;DHT22;7350;51.208;4.238;2023-02-01T08:17:56;17.20;99.90
14527;DHT22;7350;51.208;4.238;2023-02-01T08:20:24;17.10;99.90
14527;DHT22;7350;51.208;4.238;2023-02-01T08:22:52;17.10;99.90
14527;DHT22;7350;51.208;4.238;2023-02-01T08:25:21;17.20;99.90
14527;DHT22;7350;51.208;4.238;2023-02-01T08:27:48;17.10;99.90
14527;DHT22;7350;51.208;4.238;2023-02-01T08:30:16;17.10;99.90
14527;DHT22;7350;51.208;4.238;2023-02-01T08:32:43;17.00;99.90
14527;DHT22;7350;51.208;4.238;2023-02-01T08:35:11;17.00;99.90
14527;DHT22;7350;51.208;4.238;2023-02-01T08:37:38;17.00;99.90
14527;DHT22;7350;51.208;4.238;2023-02-01T08:40:06;17.00;99.90
14527;DHT22;7350;51.208;4.238;2023-02-01T08:42:35;17.00;99.90
14527;DHT22;7350;51.208;4.238;2023-02-01T08:45:21;17.00;99.90
14527;DHT22;7350;51.208;4.238;2023-02-01T08:47:49;17.00;99.90
14527;DHT22;7350;51.208;4.238;2023-02-01T08:50:17;17.00;99.90
14527;DHT22;7350;51.208;4.238;2023-02-01T08:52:44;16.90;99.90
14527;DHT22;7350;51.208;4.238;2023-02-01T08:55:12;16.90;99.90
14527;DHT22;7350;51.208;4.238;2023-02-01T08:57:41;16.90;99.90
14527;DHT22;7350;51.208;4.238;2023-02-01T09:00:11;16.80;99.90
14527;DHT22;7350;51.208;4.238;2023-02-01T09:02:40;16.80;99.90
14527;DHT22;7350;51.208;4.238;2023-02-01T09:05:07;16.80;99.90
14527;DHT22;7350;51.208;4.238;2023-02-01T09:07:35;16.70;99.90
14527;DHT22;7350;51.208;4.238;2023-02-01T09:10:02;16.70;99.90
14527;DHT22;7350;51.208;4.238;2023-02-01T09:12:31;16.70;99.90
14527;DHT22;7350;51.208;4.238;2023-02-01T09:15:00;16.70;99.90
14527;DHT22;7350;51.208;4.238;2023-02-01T09:17:29;16.80;99.90
14527;DHT22;7350;51.208;4.238;2023-02-01T09:19:56;16.80;99.90
14527;DHT22;7350;51.208;4.238;2023-02-01T09:22:23;16.70;99.90
14527;DHT22;7350;51.208;4.238;2023-02-01T09:24:50;16.70;99.90
14527;DHT22;7350;51.208;4.238;2023-02-01T09:27:17;16.80;99.90
14527;DHT22;7350;51.208;4.238;2023-02-01T09:29:44;16.70;99.90
14527;DHT22;7350;51.208;4.238;2023-02-01T09:32:12;16.70;99.90
14527;DHT22;7350;51.208;4.238;2023-02-01T09:34:39;16.70;99.90
14527;DHT22;7350;51.208;4.238;2023-02-01T09:37:06;16.70;99.90
14527;DHT22;7350;51.208;4.238;2023-02-01T09:39:33;16.70;99.90
14527;DHT22;7350;51.208;4.238;2023-02-01T09:42:12;16.70;99.90
14527;DHT22;7350;51.208;4.238;2023-02-01T09:45:09;16.70;99.90
14527;DHT22;7350;51.208;4.238;2023-02-01T09:47:45;16.70;99.90
14527;DHT22;7350;51.208;4.238;2023-02-01T09:50:16;16.60;99.90
14527;DHT22;7350;51.208;4.238;2023-02-01T09:52:51;16.60;99.90
14527;DHT22;7350;51.208;4.238;2023-02-01T09:55:31;16.60;99.90
14527;DHT22;7350;51.208;4.238;2023-02-01T09:58:02;16.70;99.90
14527;DHT22;7350;51.208;4.238;2023-02-01T10:00:33;16.70;99.90
14527;DHT22;7350;51.208;4.238;2023-02-01T10:03:03;16.60;99.90
14527;DHT22;7350;51.208;4.238;2023-02-01T10:05:43;16.60;99.90
14527;DHT22;7350;51.208;4.238;2023-02-01T10:08:17;16.60;99.90
14527;DHT22;7350;51.208;4.238;2023-02-01T10:10:48;16.60;99.90
14527;DHT22;7350;51.208;4.238;2023-02-01T10:13:30;16.60;99.90
14527;DHT22;7350;51.208;4.238;2023-02-01T10:16:08;16.50;99.90
14527;DHT22;7350;51.208;4.238;2023-02-01T10:18:57;16.50;99.90
14527;DHT22;7350;51.208;4.238;2023-02-01T10:21:46;16.50;99.90
14527;DHT22;7350;51.208;4.238;2023-02-01T10:24:36;16.50;99.90
14527;DHT22;7350;51.208;4.238;2023-02-01T10:27:12;16.50;99.90
14527;DHT22;7350;51.208;4.238;2023-02-01T10:29:41;16.50;99.90
14527;DHT22;7350;51.208;4.238;2023-02-01T10:32:13;16.50;99.90
14527;DHT22;7350;51.208;4.238;2023-02-01T10:34:42;16.50;99.90
14527;DHT22;7350;51.208;4.238;2023-02-01T10:37:20;16.50;99.90
14527;DHT22;7350;51.208;4.238;2023-02-01T10:39:52;16.50;99.90
14527;DHT22;7350;51.208;4.238;2023-02-01T10:42:23;16.40;99.90
14527;DHT22;7350;51.208;4.238;2023-02-01T10:44:50;16.50;99.90
14527;DHT22;7350;51.208;4.238;2023-02-01T10:47:18;16.50;99.90
14527;DHT22;7350;51.208;4.238;2023-02-01T10:49:52;16.50;99.90
14527;DHT22;7350;51.208;4.238;2023-02-01T10:52:35;16.50;99.90
14527;DHT22;7350;51.208;4.238;2023-02-01T10:58:15;16.40;99.90
14527;DHT22;7350;51.208;4.238;2023-02-01T11:00:46;16.40;99.90
14527;DHT22;7350;51.208;4.238;2023-02-01T11:03:36;16.40;99.90
14527;DHT22;7350;51.208;4.238;2023-02-01T11:06:11;16.50;99.90
14527;DHT22;7350;51.208;4.238;2023-02-01T11:08:45;16.40;99.90
14527;DHT22;7350;51.208;4.238;2023-02-01T11:11:12;16.40;99.90
14527;DHT22;7350;51.208;4.238;2023-02-01T11:13:40;16.40;99.90
14527;DHT22;7350;51.208;4.238;2023-02-01T11:16:13;16.40;99.90
14527;DHT22;7350;51.208;4.238;2023-02-01T11:18:41;16.40;99.90
14527;DHT22;7350;51.208;4.238;2023-02-01T11:21:10;16.40;99.90
14527;DHT22;7350;51.208;4.238;2023-02-01T11:23:43;16.40;99.90
14527;DHT22;7350;51.208;4.238;2023-02-01T11:26:13;16.40;99.90
14527;DHT22;7350;51.208;4.238;2023-02-01T11:28:51;16.40;99.90
14527;DHT22;7350;51.208;4.238;2023-02-01T11:31:19;16.40;99.90
14527;DHT22;7350;51.208;4.238;2023-02-01T11:33:51;16.40;99.90
14527;DHT22;7350;51.208;4.238;2023-02-01T11:36:23;16.40;99.90
14527;DHT22;7350;51.208;4.238;2023-02-01T11:38:54;16.40;99.90
14527;DHT22;7350;51.208;4.238;2023-02-01T11:41:24;16.50;99.90
14527;DHT22;7350;51.208;4.238;2023-02-01T11:43:55;16.50;99.90
14527;DHT22;7350;51.208;4.238;2023-02-01T11:46:24;16.40;99.90
14527;DHT22;7350;51.208;4.238;2023-02-01T11:48:54;16.40;99.90
14527;DHT22;7350;51.208;4.238;2023-02-01T11:51:37;16.40;99.90
14527;DHT22;7350;51.208;4.238;2023-02-01T11:54:28;16.50;99.90
14527;DHT22;7350;51.208;4.238;2023-02-01T11:57:06;16.50;99.90
14527;DHT22;7350;51.208;4.238;2023-02-01T11:59:53;16.60;99.90
14527;DHT22;7350;51.208;4.238;2023-02-01T12:02:39;16.60;99.90
14527;DHT22;7350;51.208;4.238;2023-02-01T12:05:20;16.70;99.90
14527;DHT22;7350;51.208;4.238;2023-02-01T12:08:08;16.80;99.90
14527;DHT22;7350;51.208;4.238;2023-02-01T12:10:47;16.80;99.90
14527;DHT22;7350;51.208;4.238;2023-02-01T12:13:28;16.90;99.90
14527;DHT22;7350;51.208;4.238;2023-02-01T12:16:06;17.00;99.90
14527;DHT22;7350;51.208;4.238;2023-02-01T12:19:00;17.00;99.90
14527;DHT22;7350;51.208;4.238;2023-02-01T12:21:53;17.10;99.90
14527;DHT22;7350;51.208;4.238;2023-02-01T12:24:49;17.10;99.90
14527;DHT22;7350;51.208;4.238;2023-02-01T12:30:49;17.20;99.90
14527;DHT22;7350;51.208;4.238;2023-02-01T12:33:29;17.30;99.90
14527;DHT22;7350;51.208;4.238;2023-02-01T12:36:12;17.30;99.90
14527;DHT22;7350;51.208;4.238;2023-02-01T12:38:48;17.40;99.90
14527;DHT22;7350;51.208;4.238;2023-02-01T12:41:47;17.40;99.90
14527;DHT22;7350;51.208;4.238;2023-02-01T12:44:40;17.50;99.90
14527;DHT22;7350;51.208;4.238;2023-02-01T12:47:15;17.50;99.90
14527;DHT22;7350;51.208;4.238;2023-02-01T12:49:48;17.50;99.90
14527;DHT22;7350;51.208;4.238;2023-02-01T12:52:19;17.50;99.90
14527;DHT22;7350;51.208;4.238;2023-02-01T12:54:52;17.50;99.90
14527;DHT22;7350;51.208;4.238;2023-02-01T12:57:25;17.50;99.90
14527;DHT22;7350;51.208;4.238;2023-02-01T12:59:56;17.50;99.90
14527;DHT22;7350;51.208;4.238;2023-02-01T13:02:32;17.50;99.90
14527;DHT22;7350;51.208;4.238;2023-02-01T13:05:11;17.50;99.90
14527;DHT22;7350;51.208;4.238;2023-02-01T13:07:43;17.40;99.90
14527;DHT22;7350;51.208;4.238;2023-02-01T13:10:15;17.40;99.90
14527;DHT22;7350;51.208;4.238;2023-02-01T13:12:50;17.40;99.90
14527;DHT22;7350;51.208;4.238;2023-02-01T13:15:21;17.40;99.90
14527;DHT22;7350;51.208;4.238;2023-02-01T13:17:51;17.30;99.90
14527;DHT22;7350;51.208;4.238;2023-02-01T13:20:24;17.30;99.90
14527;DHT22;7350;51.208;4.238;2023-02-01T13:22:57;17.30;99.90
14527;DHT22;7350;51.208;4.238;2023-02-01T13:25:31;17.30;99.90
14527;DHT22;7350;51.208;4.238;2023-02-01T13:28:04;17.30;99.90
14527;DHT22;7350;51.208;4.238;2023-02-01T13:30:47;17.20;99.90
14527;DHT22;7350;51.208;4.238;2023-02-01T13:33:36;17.20;99.90
14527;DHT22;7350;51.208;4.238;2023-02-01T13:39:37;17.20;99.90
14527;DHT22;7350;51.208;4.238;2023-02-01T13:42:14;17.10;99.90
14527;DHT22;7350;51.208;4.238;2023-02-01T13:44:47;17.10;99.90
14527;DHT22;7350;51.208;4.238;2023-02-01T13:47:28;17.10;99.90
14527;DHT22;7350;51.208;4.238;2023-02-01T13:49:59;17.10;99.90
14527;DHT22;7350;51.208;4.238;2023-02-01T13:52:37;17.00;99.90
14527;DHT22;7350;51.208;4.238;2023-02-01T13:55:28;17.00;99.90
14527;DHT22;7350;51.208;4.238;2023-02-01T13:58:05;17.00;99.90
14527;DHT22;7350;51.208;4.238;2023-02-01T14:00:39;17.00;99.90
14527;DHT22;7350;51.208;4.238;2023-02-01T14:03:12;17.00;99.90
14527;DHT22;7350;51.208;4.238;2023-02-01T14:06:00;17.00;99.90
14527;DHT22;7350;51.208;4.238;2023-02-01T14:11:41;17.00;99.90
14527;DHT22;7350;51.208;4.238;2023-02-01T14:17:40;17.00;99.90
14527;DHT22;7350;51.208;4.238;2023-02-01T14:23:29;17.00;99.90
14527;DHT22;7350;51.208;4.238;2023-02-01T14:26:20;17.00;99.90
14527;DHT22;7350;51.208;4.238;2023-02-01T14:29:00;16.90;99.90
14527;DHT22;7350;51.208;4.238;2023-02-01T14:31:39;16.90;99.90
14527;DHT22;7350;51.208;4.238;2023-02-01T14:34:17;16.90;99.90
14527;DHT22;7350;51.208;4.238;2023-02-01T14:36:55;17.00;99.90
14527;DHT22;7350;51.208;4.238;2023-02-01T14:39:36;16.90;99.90
14527;DHT22;7350;51.208;4.238;2023-02-01T14:42:14;16.90;99.90
14527;DHT22;7350;51.208;4.238;2023-02-01T14:44:42;16.90;99.90
14527;DHT22;7350;51.208;4.238;2023-02-01T14:47:33;16.90;99.90
14527;DHT22;7350;51.208;4.238;2023-02-01T14:50:26;16.90;99.90
14527;DHT22;7350;51.208;4.238;2023-02-01T14:53:18;16.90;99.90
14527;DHT22;7350;51.208;4.238;2023-02-01T14:55:49;16.90;99.90
14527;DHT22;7350;51.208;4.238;2023-02-01T14:58:32;16.90;99.90
14527;DHT22;7350;51.208;4.238;2023-02-01T15:01:01;17.00;99.90
14527;DHT22;7350;51.208;4.238;2023-02-01T15:03:44;17.00;99.90
14527;DHT22;7350;51.208;4.238;2023-02-01T15:06:36;17.00;99.90
14527;DHT22;7350;51.208;4.238;2023-02-01T15:09:09;17.00;99.90
14527;DHT22;7350;51.208;4.238;2023-02-01T15:11:58;17.10;99.90
14527;DHT22;7350;51.208;4.238;2023-02-01T15:14:25;17.10;99.90
14527;DHT22;7350;51.208;4.238;2023-02-01T15:16:52;17.20;99.90
14527;DHT22;7350;51.208;4.238;2023-02-01T15:19:22;17.20;99.90
14527;DHT22;7350;51.208;4.238;2023-02-01T15:21:52;17.30;99.90
14527;DHT22;7350;51.208;4.238;2023-02-01T15:24:21;17.30;99.90
14527;DHT22;7350;51.208;4.238;2023-02-01T15:26:49;17.30;99.90
14527;DHT22;7350;51.208;4.238;2023-02-01T15:29:24;17.40;99.90
14527;DHT22;7350;51.208;4.238;2023-02-01T15:31:53;17.40;99.90
14527;DHT22;7350;51.208;4.238;2023-02-01T15:34:20;17.40;99.90
14527;DHT22;7350;51.208;4.238;2023-02-01T15:36:49;17.40;99.90
14527;DHT22;7350;51.208;4.238;2023-02-01T15:39:21;17.50;99.90
14527;DHT22;7350;51.208;4.238;2023-02-01T15:41:53;17.50;99.90
14527;DHT22;7350;51.208;4.238;2023-02-01T15:44:31;17.50;99.90
14527;DHT22;7350;51.208;4.238;2023-02-01T15:46:59;17.50;99.90
14527;DHT22;7350;51.208;4.238;2023-02-01T15:49:29;17.60;99.90
14527;DHT22;7350;51.208;4.238;2023-02-01T15:52:00;17.60;99.90
14527;DHT22;7350;51.208;4.238;2023-02-01T15:54:31;17.60;99.90
14527;DHT22;7350;51.208;4.238;2023-02-01T15:57:00;17.60;99.90
14527;DHT22;7350;51.208;4.238;2023-02-01T15:59:31;17.70;99.90
14527;DHT22;7350;51.208;4.238;2023-02-01T16:01:59;17.70;99.90
14527;DHT22;7350;51.208;4.238;2023-02-01T16:04:28;17.70;99.90
14527;DHT22;7350;51.208;4.238;2023-02-01T16:06:59;17.70;99.90
14527;DHT22;7350;51.208;4.238;2023-02-01T16:09:36;17.70;99.90
14527;DHT22;7350;51.208;4.238;2023-02-01T16:12:31;17.70;99.90
14527;DHT22;7350;51.208;4.238;2023-02-01T16:15:00;17.80;99.90
14527;DHT22;7350;51.208;4.238;2023-02-01T16:17:27;17.80;99.90
14527;DHT22;7350;51.208;4.238;2023-02-01T16:19:54;17.80;99.90
14527;DHT22;7350;51.208;4.238;2023-02-01T16:22:24;17.80;99.90
14527;DHT22;7350;51.208;4.238;2023-02-01T16:24:51;17.80;99.90
14527;DHT22;7350;51.208;4.238;2023-02-01T16:27:18;17.80;99.90
14527;DHT22;7350;51.208;4.238;2023-02-01T16:29:46;17.80;99.90
14527;DHT22;7350;51.208;4.238;2023-02-01T16:32:16;17.90;99.90
14527;DHT22;7350;51.208;4.238;2023-02-01T16:34:44;17.90;99.90
14527;DHT22;7350;51.208;4.238;2023-02-01T16:37:12;17.90;99.90